Route Details

Aircraft Information
Group: Boeing 767
Types: B762, B763
Route Data
Distance: 2261nm
Duration: 5h 20m
Origin METAR: PHNL 171053Z 29004KT 10SM FEW025 FEW070 25/21 A2997 RMK AO2 SLP150 T02500211
Dest. METAR: KONT 171053Z 17004KT 10SM SCT180 23/14 A2988 RMK AO2 SLP097 T02280144
Freight Data
(for Aug 18, 2022)
Load Factor:
22%
Manifested Cargo: 24,612lbs
Financial History
Total Freight: 0lbs
Average Load: 0lbs/flt
Fuel Used: 0lbs
Avg. Fuel Used: 0lbs/flt
Fuel Expense: $0
Avg. Fuel Expense: $0
Avg. Fuel Cost: $0/lbs
Total Gross Income: $0
Pilot Pay: $0
Total Expenses: $0
Total Revenue: $0
Average Revenue: $0

Capitol Logistics 407




PHNL
Daniel K Inouye International Airport
Honolulu, Hawaii
KONT
Ontario International Airport
Ontario, California

Activity Log

Date Flight Route Aircraft Duration
No Flights Yet